sensor_id;sensor_type;location;lat;lon;timestamp;temperature;humidity
9977;DHT22;5029;47.378;11.776;2022-09-01T00:04:37;12.90;99.90
9977;DHT22;5029;47.378;11.776;2022-09-01T00:09:41;13.00;99.90
9977;DHT22;5029;47.378;11.776;2022-09-01T00:14:46;12.80;99.90
9977;DHT22;5029;47.378;11.776;2022-09-01T00:19:49;12.90;99.90
9977;DHT22;5029;47.378;11.776;2022-09-01T00:24:53;12.90;99.90
9977;DHT22;5029;47.378;11.776;2022-09-01T00:29:59;12.90;99.90
9977;DHT22;5029;47.378;11.776;2022-09-01T00:35:03;12.70;99.90
9977;DHT22;5029;47.378;11.776;2022-09-01T00:40:08;12.70;99.90
9977;DHT22;5029;47.378;11.776;2022-09-01T00:45:14;12.80;99.90
9977;DHT22;5029;47.378;11.776;2022-09-01T00:50:18;12.60;99.90
9977;DHT22;5029;47.378;11.776;2022-09-01T00:55:26;12.60;99.90
9977;DHT22;5029;47.378;11.776;2022-09-01T01:00:36;12.60;99.90
9977;DHT22;5029;47.378;11.776;2022-09-01T01:05:45;12.60;99.90
9977;DHT22;5029;47.378;11.776;2022-09-01T01:10:49;12.60;99.90
9977;DHT22;5029;47.378;11.776;2022-09-01T01:15:54;12.60;99.90
9977;DHT22;5029;47.378;11.776;2022-09-01T01:21:02;12.70;99.90
9977;DHT22;5029;47.378;11.776;2022-09-01T01:26:25;12.60;99.90
9977;DHT22;5029;47.378;11.776;2022-09-01T01:31:29;12.60;99.90
9977;DHT22;5029;47.378;11.776;2022-09-01T01:36:35;12.60;99.90
9977;DHT22;5029;47.378;11.776;2022-09-01T01:41:44;12.60;99.90
9977;DHT22;5029;47.378;11.776;2022-09-01T01:46:52;12.50;99.90
9977;DHT22;5029;47.378;11.776;2022-09-01T01:51:56;12.50;99.90
9977;DHT22;5029;47.378;11.776;2022-09-01T01:57:02;12.50;99.90
9977;DHT22;5029;47.378;11.776;2022-09-01T02:02:06;12.50;99.90
9977;DHT22;5029;47.378;11.776;2022-09-01T02:07:12;12.40;99.90
9977;DHT22;5029;47.378;11.776;2022-09-01T02:12:17;12.60;99.90
9977;DHT22;5029;47.378;11.776;2022-09-01T02:17:21;12.50;99.90
9977;DHT22;5029;47.378;11.776;2022-09-01T02:22:26;12.60;99.90
9977;DHT22;5029;47.378;11.776;2022-09-01T02:27:32;12.50;99.90
9977;DHT22;5029;47.378;11.776;2022-09-01T02:32:37;12.50;99.90
9977;DHT22;5029;47.378;11.776;2022-09-01T02:37:42;12.40;99.90
9977;DHT22;5029;47.378;11.776;2022-09-01T02:42:48;12.40;99.90
9977;DHT22;5029;47.378;11.776;2022-09-01T02:47:55;12.50;99.90
9977;DHT22;5029;47.378;11.776;2022-09-01T02:52:59;12.50;99.90
9977;DHT22;5029;47.378;11.776;2022-09-01T02:58:06;12.60;99.90
9977;DHT22;5029;47.378;11.776;2022-09-01T03:03:15;12.50;99.90
9977;DHT22;5029;47.378;11.776;2022-09-01T03:08:23;12.60;99.90
9977;DHT22;5029;47.378;11.776;2022-09-01T03:13:29;12.60;99.90
9977;DHT22;5029;47.378;11.776;2022-09-01T03:18:33;12.60;99.90
9977;DHT22;5029;47.378;11.776;2022-09-01T03:23:37;12.50;99.90
9977;DHT22;5029;47.378;11.776;2022-09-01T03:28:42;12.40;99.90
9977;DHT22;5029;47.378;11.776;2022-09-01T03:33:46;12.30;99.90
9977;DHT22;5029;47.378;11.776;2022-09-01T03:38:50;12.50;99.90
9977;DHT22;5029;47.378;11.776;2022-09-01T03:43:56;12.60;99.90
9977;DHT22;5029;47.378;11.776;2022-09-01T03:49:00;12.50;99.90
9977;DHT22;5029;47.378;11.776;2022-09-01T03:54:04;12.50;99.90
9977;DHT22;5029;47.378;11.776;2022-09-01T03:59:09;12.40;99.90
9977;DHT22;5029;47.378;11.776;2022-09-01T04:04:18;12.50;99.90
9977;DHT22;5029;47.378;11.776;2022-09-01T04:09:21;12.40;99.90
9977;DHT22;5029;47.378;11.776;2022-09-01T04:14:26;12.40;99.90
9977;DHT22;5029;47.378;11.776;2022-09-01T04:19:33;12.40;99.90
9977;DHT22;5029;47.378;11.776;2022-09-01T04:24:38;12.40;99.90
9977;DHT22;5029;47.378;11.776;2022-09-01T04:29:47;12.40;99.90
9977;DHT22;5029;47.378;11.776;2022-09-01T04:34:51;12.30;99.90
9977;DHT22;5029;47.378;11.776;2022-09-01T04:39:55;12.30;99.90
9977;DHT22;5029;47.378;11.776;2022-09-01T04:45:00;12.30;99.90
9977;DHT22;5029;47.378;11.776;2022-09-01T04:50:11;12.20;99.90
9977;DHT22;5029;47.378;11.776;2022-09-01T04:55:18;12.20;99.90
9977;DHT22;5029;47.378;11.776;2022-09-01T05:00:25;12.30;99.90
9977;DHT22;5029;47.378;11.776;2022-09-01T05:05:36;12.40;99.90
9977;DHT22;5029;47.378;11.776;2022-09-01T05:10:46;12.40;99.90
9977;DHT22;5029;47.378;11.776;2022-09-01T05:16:02;12.40;99.90
9977;DHT22;5029;47.378;11.776;2022-09-01T05:21:07;12.40;99.90
9977;DHT22;5029;47.378;11.776;2022-09-01T05:26:13;12.60;99.90
9977;DHT22;5029;47.378;11.776;2022-09-01T05:31:19;12.50;99.90
9977;DHT22;5029;47.378;11.776;2022-09-01T05:36:23;12.50;99.90
9977;DHT22;5029;47.378;11.776;2022-09-01T05:41:27;12.50;99.90
9977;DHT22;5029;47.378;11.776;2022-09-01T05:46:33;12.50;99.90
9977;DHT22;5029;47.378;11.776;2022-09-01T05:51:39;12.60;99.90
9977;DHT22;5029;47.378;11.776;2022-09-01T05:56:47;12.70;99.90
9977;DHT22;5029;47.378;11.776;2022-09-01T06:01:52;12.80;99.90
9977;DHT22;5029;47.378;11.776;2022-09-01T06:06:56;12.80;99.90
9977;DHT22;5029;47.378;11.776;2022-09-01T06:12:08;12.70;99.90
9977;DHT22;5029;47.378;11.776;2022-09-01T06:17:23;12.70;99.90
9977;DHT22;5029;47.378;11.776;2022-09-01T06:22:27;12.70;99.90
9977;DHT22;5029;47.378;11.776;2022-09-01T06:27:32;12.90;99.90
9977;DHT22;5029;47.378;11.776;2022-09-01T06:32:41;13.00;99.90
9977;DHT22;5029;47.378;11.776;2022-09-01T06:37:46;13.00;99.90
9977;DHT22;5029;47.378;11.776;2022-09-01T06:42:51;13.00;99.90
9977;DHT22;5029;47.378;11.776;2022-09-01T06:47:56;13.10;99.90
9977;DHT22;5029;47.378;11.776;2022-09-01T06:53:02;13.20;99.90
9977;DHT22;5029;47.378;11.776;2022-09-01T06:58:35;13.50;99.90
9977;DHT22;5029;47.378;11.776;2022-09-01T07:03:47;13.70;99.90
9977;DHT22;5029;47.378;11.776;2022-09-01T07:08:53;14.00;99.90
9977;DHT22;5029;47.378;11.776;2022-09-01T07:14:17;14.00;99.90
9977;DHT22;5029;47.378;11.776;2022-09-01T07:19:24;13.90;99.90
9977;DHT22;5029;47.378;11.776;2022-09-01T07:24:48;13.90;99.90
9977;DHT22;5029;47.378;11.776;2022-09-01T07:30:13;13.80;99.90
9977;DHT22;5029;47.378;11.776;2022-09-01T07:35:19;13.40;99.90
9977;DHT22;5029;47.378;11.776;2022-09-01T07:40:23;13.40;99.90
9977;DHT22;5029;47.378;11.776;2022-09-01T07:45:52;13.70;99.90
9977;DHT22;5029;47.378;11.776;2022-09-01T07:51:02;14.30;99.90
9977;DHT22;5029;47.378;11.776;2022-09-01T07:56:27;14.30;99.90
9977;DHT22;5029;47.378;11.776;2022-09-01T08:01:31;14.20;99.90
9977;DHT22;5029;47.378;11.776;2022-09-01T08:06:36;14.50;99.90
9977;DHT22;5029;47.378;11.776;2022-09-01T08:11:41;14.50;99.90
9977;DHT22;5029;47.378;11.776;2022-09-01T08:17:03;14.60;99.90
9977;DHT22;5029;47.378;11.776;2022-09-01T08:22:28;15.00;99.90
9977;DHT22;5029;47.378;11.776;2022-09-01T08:27:35;14.90;99.90
9977;DHT22;5029;47.378;11.776;2022-09-01T08:32:40;15.10;99.90
9977;DHT22;5029;47.378;11.776;2022-09-01T08:37:45;15.20;99.90
9977;DHT22;5029;47.378;11.776;2022-09-01T08:42:56;15.00;99.90
9977;DHT22;5029;47.378;11.776;2022-09-01T08:48:12;15.60;99.90
9977;DHT22;5029;47.378;11.776;2022-09-01T08:53:46;15.00;99.90
9977;DHT22;5029;47.378;11.776;2022-09-01T08:58:51;15.10;99.90
9977;DHT22;5029;47.378;11.776;2022-09-01T09:04:07;15.30;99.90
9977;DHT22;5029;47.378;11.776;2022-09-01T09:09:15;15.00;99.90
9977;DHT22;5029;47.378;11.776;2022-09-01T09:14:32;15.40;99.90
9977;DHT22;5029;47.378;11.776;2022-09-01T09:19:39;15.40;99.90
9977;DHT22;5029;47.378;11.776;2022-09-01T09:24:49;15.90;99.90
9977;DHT22;5029;47.378;11.776;2022-09-01T09:29:54;15.80;99.90
9977;DHT22;5029;47.378;11.776;2022-09-01T09:35:21;16.20;99.90
9977;DHT22;5029;47.378;11.776;2022-09-01T09:40:26;16.20;99.90
9977;DHT22;5029;47.378;11.776;2022-09-01T09:45:31;15.80;99.90
9977;DHT22;5029;47.378;11.776;2022-09-01T09:50:37;16.20;99.90
9977;DHT22;5029;47.378;11.776;2022-09-01T09:55:57;16.60;99.90
9977;DHT22;5029;47.378;11.776;2022-09-01T10:01:06;16.50;99.90
9977;DHT22;5029;47.378;11.776;2022-09-01T10:06:28;16.80;99.90
9977;DHT22;5029;47.378;11.776;2022-09-01T10:11:36;17.20;99.90
9977;DHT22;5029;47.378;11.776;2022-09-01T10:16:42;17.20;99.90
9977;DHT22;5029;47.378;11.776;2022-09-01T10:21:49;17.40;99.90
9977;DHT22;5029;47.378;11.776;2022-09-01T10:26:57;17.60;99.90
9977;DHT22;5029;47.378;11.776;2022-09-01T10:32:07;17.00;99.90
9977;DHT22;5029;47.378;11.776;2022-09-01T10:37:31;16.80;99.90
9977;DHT22;5029;47.378;11.776;2022-09-01T10:42:37;17.70;99.90
9977;DHT22;5029;47.378;11.776;2022-09-01T10:47:46;18.20;99.90
9977;DHT22;5029;47.378;11.776;2022-09-01T10:53:04;17.60;99.90
9977;DHT22;5029;47.378;11.776;2022-09-01T10:58:29;17.50;99.90
9977;DHT22;5029;47.378;11.776;2022-09-01T11:03:57;17.40;99.90
9977;DHT22;5029;47.378;11.776;2022-09-01T11:09:04;17.80;99.90
9977;DHT22;5029;47.378;11.776;2022-09-01T11:14:18;17.50;99.90
9977;DHT22;5029;47.378;11.776;2022-09-01T11:19:42;17.40;99.90
9977;DHT22;5029;47.378;11.776;2022-09-01T11:30:17;17.30;99.90
9977;DHT22;5029;47.378;11.776;2022-09-01T11:35:25;17.30;99.90
9977;DHT22;5029;47.378;11.776;2022-09-01T11:40:32;17.40;99.90
9977;DHT22;5029;47.378;11.776;2022-09-01T11:45:43;17.90;99.90
9977;DHT22;5029;47.378;11.776;2022-09-01T11:50:57;17.60;99.90
9977;DHT22;5029;47.378;11.776;2022-09-01T11:56:13;18.10;99.90
9977;DHT22;5029;47.378;11.776;2022-09-01T12:01:20;17.90;99.90
9977;DHT22;5029;47.378;11.776;2022-09-01T12:06:26;17.80;99.90
9977;DHT22;5029;47.378;11.776;2022-09-01T12:11:32;17.80;99.90
9977;DHT22;5029;47.378;11.776;2022-09-01T12:16:39;17.50;99.90
9977;DHT22;5029;47.378;11.776;2022-09-01T12:21:56;17.70;99.90
9977;DHT22;5029;47.378;11.776;2022-09-01T12:27:02;17.60;99.90
9977;DHT22;5029;47.378;11.776;2022-09-01T12:32:07;17.60;99.90
9977;DHT22;5029;47.378;11.776;2022-09-01T12:37:19;17.80;99.90
9977;DHT22;5029;47.378;11.776;2022-09-01T12:42:27;17.60;99.90
9977;DHT22;5029;47.378;11.776;2022-09-01T12:47:50;18.00;99.90
9977;DHT22;5029;47.378;11.776;2022-09-01T12:52:55;18.10;99.90
9977;DHT22;5029;47.378;11.776;2022-09-01T12:58:01;18.50;99.90
9977;DHT22;5029;47.378;11.776;2022-09-01T13:03:11;18.50;99.90
9977;DHT22;5029;47.378;11.776;2022-09-01T13:08:17;18.20;99.90
9977;DHT22;5029;47.378;11.776;2022-09-01T13:13:23;18.40;99.90
9977;DHT22;5029;47.378;11.776;2022-09-01T13:18:29;18.40;99.90
9977;DHT22;5029;47.378;11.776;2022-09-01T13:23:33;18.40;99.90
9977;DHT22;5029;47.378;11.776;2022-09-01T13:28:37;18.20;99.90
9977;DHT22;5029;47.378;11.776;2022-09-01T13:33:43;18.00;99.90
9977;DHT22;5029;47.378;11.776;2022-09-01T13:39:06;18.20;99.90
9977;DHT22;5029;47.378;11.776;2022-09-01T13:44:10;18.00;99.90
9977;DHT22;5029;47.378;11.776;2022-09-01T13:49:15;17.80;99.90
9977;DHT22;5029;47.378;11.776;2022-09-01T13:54:39;17.70;99.90
9977;DHT22;5029;47.378;11.776;2022-09-01T13:59:45;17.80;99.90
9977;DHT22;5029;47.378;11.776;2022-09-01T14:04:50;17.70;99.90
9977;DHT22;5029;47.378;11.776;2022-09-01T14:09:53;17.80;99.90
9977;DHT22;5029;47.378;11.776;2022-09-01T14:14:57;18.00;99.90
9977;DHT22;5029;47.378;11.776;2022-09-01T14:20:25;18.00;99.90
9977;DHT22;5029;47.378;11.776;2022-09-01T14:25:31;18.50;99.90
9977;DHT22;5029;47.378;11.776;2022-09-01T14:30:34;18.40;99.90
9977;DHT22;5029;47.378;11.776;2022-09-01T14:35:42;18.20;99.90
9977;DHT22;5029;47.378;11.776;2022-09-01T14:40:47;18.20;99.90
9977;DHT22;5029;47.378;11.776;2022-09-01T14:46:01;18.30;99.90
9977;DHT22;5029;47.378;11.776;2022-09-01T14:51:16;19.60;99.90
9977;DHT22;5029;47.378;11.776;2022-09-01T14:56:21;19.20;99.90
9977;DHT22;5029;47.378;11.776;2022-09-01T15:01:26;19.70;99.90
9977;DHT22;5029;47.378;11.776;2022-09-01T15:06:37;19.20;99.90
9977;DHT22;5029;47.378;11.776;2022-09-01T15:11:41;18.30;99.90
9977;DHT22;5029;47.378;11.776;2022-09-01T15:16:46;18.10;99.90
9977;DHT22;5029;47.378;11.776;2022-09-01T15:21:51;17.80;99.90
9977;DHT22;5029;47.378;11.776;2022-09-01T15:26:55;17.60;99.90
9977;DHT22;5029;47.378;11.776;2022-09-01T15:31:59;17.60;99.90
9977;DHT22;5029;47.378;11.776;2022-09-01T15:37:04;17.70;99.90
9977;DHT22;5029;47.378;11.776;2022-09-01T15:42:09;17.70;99.90
9977;DHT22;5029;47.378;11.776;2022-09-01T15:47:13;17.50;99.90
9977;DHT22;5029;47.378;11.776;2022-09-01T15:52:18;17.30;99.90
9977;DHT22;5029;47.378;11.776;2022-09-01T15:57:22;17.20;99.90
9977;DHT22;5029;47.378;11.776;2022-09-01T16:02:25;17.20;99.90
9977;DHT22;5029;47.378;11.776;2022-09-01T16:07:31;17.20;99.90
9977;DHT22;5029;47.378;11.776;2022-09-01T16:12:34;17.00;99.90
9977;DHT22;5029;47.378;11.776;2022-09-01T16:17:59;17.10;99.90
9977;DHT22;5029;47.378;11.776;2022-09-01T16:23:13;17.10;99.90
9977;DHT22;5029;47.378;11.776;2022-09-01T16:28:24;17.00;99.90
9977;DHT22;5029;47.378;11.776;2022-09-01T16:33:28;17.20;99.90
9977;DHT22;5029;47.378;11.776;2022-09-01T16:38:42;16.90;99.90
9977;DHT22;5029;47.378;11.776;2022-09-01T16:43:57;16.70;99.90
9977;DHT22;5029;47.378;11.776;2022-09-01T16:49:08;16.70;99.90
9977;DHT22;5029;47.378;11.776;2022-09-01T16:54:25;16.50;99.90
9977;DHT22;5029;47.378;11.776;2022-09-01T16:59:37;16.70;99.90
9977;DHT22;5029;47.378;11.776;2022-09-01T17:04:49;16.40;99.90
9977;DHT22;5029;47.378;11.776;2022-09-01T17:10:03;16.40;99.90
9977;DHT22;5029;47.378;11.776;2022-09-01T17:15:09;16.30;99.90
9977;DHT22;5029;47.378;11.776;2022-09-01T17:20:16;16.40;99.90
9977;DHT22;5029;47.378;11.776;2022-09-01T17:25:27;16.20;99.90
9977;DHT22;5029;47.378;11.776;2022-09-01T17:30:33;16.10;99.90
9977;DHT22;5029;47.378;11.776;2022-09-01T17:35:51;16.00;99.90
9977;DHT22;5029;47.378;11.776;2022-09-01T17:41:10;16.00;99.90
9977;DHT22;5029;47.378;11.776;2022-09-01T17:46:23;16.00;99.90
9977;DHT22;5029;47.378;11.776;2022-09-01T17:51:33;15.80;99.90
9977;DHT22;5029;47.378;11.776;2022-09-01T17:56:46;15.80;99.90
9977;DHT22;5029;47.378;11.776;2022-09-01T18:02:00;15.70;99.90
9977;DHT22;5029;47.378;11.776;2022-09-01T18:07:15;15.70;99.90
9977;DHT22;5029;47.378;11.776;2022-09-01T18:12:26;15.60;99.90
9977;DHT22;5029;47.378;11.776;2022-09-01T18:17:32;15.40;99.90
9977;DHT22;5029;47.378;11.776;2022-09-01T18:22:40;15.50;99.90
9977;DHT22;5029;47.378;11.776;2022-09-01T18:27:46;15.30;99.90
9977;DHT22;5029;47.378;11.776;2022-09-01T18:32:54;15.40;99.90
9977;DHT22;5029;47.378;11.776;2022-09-01T18:38:14;15.20;99.90
9977;DHT22;5029;47.378;11.776;2022-09-01T18:43:25;15.40;99.90
9977;DHT22;5029;47.378;11.776;2022-09-01T18:48:42;15.30;99.90
9977;DHT22;5029;47.378;11.776;2022-09-01T18:53:51;15.20;99.90
9977;DHT22;5029;47.378;11.776;2022-09-01T18:59:09;14.90;99.90
9977;DHT22;5029;47.378;11.776;2022-09-01T19:04:18;14.80;99.90
9977;DHT22;5029;47.378;11.776;2022-09-01T19:09:28;14.80;99.90
9977;DHT22;5029;47.378;11.776;2022-09-01T19:14:57;14.70;99.90
9977;DHT22;5029;47.378;11.776;2022-09-01T19:20:11;14.70;99.90
9977;DHT22;5029;47.378;11.776;2022-09-01T19:25:21;14.50;99.90
9977;DHT22;5029;47.378;11.776;2022-09-01T19:30:43;14.50;99.90
9977;DHT22;5029;47.378;11.776;2022-09-01T19:35:56;14.20;99.90
9977;DHT22;5029;47.378;11.776;2022-09-01T19:41:22;14.20;99.90
9977;DHT22;5029;47.378;11.776;2022-09-01T19:46:39;14.00;99.90
9977;DHT22;5029;47.378;11.776;2022-09-01T19:51:54;14.00;99.90
9977;DHT22;5029;47.378;11.776;2022-09-01T19:57:05;14.00;99.90
9977;DHT22;5029;47.378;11.776;2022-09-01T20:02:24;13.60;99.90
9977;DHT22;5029;47.378;11.776;2022-09-01T20:07:34;13.80;99.90
9977;DHT22;5029;47.378;11.776;2022-09-01T20:12:45;13.60;99.90
9977;DHT22;5029;47.378;11.776;2022-09-01T20:17:57;13.30;99.90
9977;DHT22;5029;47.378;11.776;2022-09-01T20:23:10;13.10;99.90
9977;DHT22;5029;47.378;11.776;2022-09-01T20:28:22;13.20;99.90
9977;DHT22;5029;47.378;11.776;2022-09-01T20:33:33;13.20;99.90
9977;DHT22;5029;47.378;11.776;2022-09-01T20:38:46;13.00;99.90
9977;DHT22;5029;47.378;11.776;2022-09-01T20:44:15;13.00;99.90
9977;DHT22;5029;47.378;11.776;2022-09-01T20:49:24;13.00;99.90
9977;DHT22;5029;47.378;11.776;2022-09-01T20:54:34;13.10;99.90
9977;DHT22;5029;47.378;11.776;2022-09-01T20:59:44;13.10;99.90
9977;DHT22;5029;47.378;11.776;2022-09-01T21:04:57;12.50;99.90
9977;DHT22;5029;47.378;11.776;2022-09-01T21:10:11;12.50;99.90
9977;DHT22;5029;47.378;11.776;2022-09-01T21:15:27;12.80;99.90
9977;DHT22;5029;47.378;11.776;2022-09-01T21:20:44;12.40;99.90
9977;DHT22;5029;47.378;11.776;2022-09-01T21:25:49;12.30;99.90
9977;DHT22;5029;47.378;11.776;2022-09-01T21:30:54;12.30;99.90
9977;DHT22;5029;47.378;11.776;2022-09-01T21:36:01;12.10;99.90
9977;DHT22;5029;47.378;11.776;2022-09-01T21:41:04;12.20;99.90
9977;DHT22;5029;47.378;11.776;2022-09-01T21:46:13;12.20;99.90
9977;DHT22;5029;47.378;11.776;2022-09-01T21:51:19;12.00;99.90
9977;DHT22;5029;47.378;11.776;2022-09-01T21:56:23;11.70;99.90
9977;DHT22;5029;47.378;11.776;2022-09-01T22:01:27;11.50;99.90
9977;DHT22;5029;47.378;11.776;2022-09-01T22:06:33;11.60;99.90
9977;DHT22;5029;47.378;11.776;2022-09-01T22:11:38;11.60;99.90
9977;DHT22;5029;47.378;11.776;2022-09-01T22:16:42;11.60;99.90
9977;DHT22;5029;47.378;11.776;2022-09-01T22:21:48;11.40;99.90
9977;DHT22;5029;47.378;11.776;2022-09-01T22:26:52;11.60;99.90
9977;DHT22;5029;47.378;11.776;2022-09-01T22:38:02;11.60;99.90
9977;DHT22;5029;47.378;11.776;2022-09-01T22:43:05;11.90;99.90
9977;DHT22;5029;47.378;11.776;2022-09-01T22:48:09;11.80;99.90
9977;DHT22;5029;47.378;11.776;2022-09-01T22:53:16;11.40;99.90
9977;DHT22;5029;47.378;11.776;2022-09-01T22:58:20;11.50;99.90
9977;DHT22;5029;47.378;11.776;2022-09-01T23:03:23;11.20;99.90
9977;DHT22;5029;47.378;11.776;2022-09-01T23:08:28;11.00;99.90
9977;DHT22;5029;47.378;11.776;2022-09-01T23:13:32;11.20;99.90
9977;DHT22;5029;47.378;11.776;2022-09-01T23:18:39;11.50;99.90
9977;DHT22;5029;47.378;11.776;2022-09-01T23:23:44;11.50;99.90
9977;DHT22;5029;47.378;11.776;2022-09-01T23:28:48;11.70;99.90
9977;DHT22;5029;47.378;11.776;2022-09-01T23:33:52;12.00;99.90
9977;DHT22;5029;47.378;11.776;2022-09-01T23:38:57;11.60;99.90
9977;DHT22;5029;47.378;11.776;2022-09-01T23:44:04;11.80;99.90
9977;DHT22;5029;47.378;11.776;2022-09-01T23:49:08;11.10;99.90
9977;DHT22;5029;47.378;11.776;2022-09-01T23:54:14;11.70;99.90
9977;DHT22;5029;47.378;11.776;2022-09-01T23:59:18;11.80;99.90
